sensor_id;sensor_type;location;lat;lon;timestamp;P1;durP1;ratioP1;P2;durP2;ratioP2
49852;SDS011;35751;48.072;11.688;2023-04-10T00:02:15;23.73;;;13.57;;
49852;SDS011;35751;48.072;11.688;2023-04-10T00:04:40;25.77;;;13.50;;
49852;SDS011;35751;48.072;11.688;2023-04-10T00:07:05;25.73;;;11.93;;
49852;SDS011;35751;48.072;11.688;2023-04-10T00:09:31;22.08;;;13.82;;
49852;SDS011;35751;48.072;11.688;2023-04-10T00:11:56;28.15;;;13.30;;
49852;SDS011;35751;48.072;11.688;2023-04-10T00:14:21;26.30;;;13.70;;
49852;SDS011;35751;48.072;11.688;2023-04-10T00:16:48;24.33;;;12.35;;
49852;SDS011;35751;48.072;11.688;2023-04-10T00:19:14;24.42;;;12.85;;
49852;SDS011;35751;48.072;11.688;2023-04-10T00:21:40;24.65;;;13.40;;
49852;SDS011;35751;48.072;11.688;2023-04-10T00:24:05;18.75;;;11.75;;
49852;SDS011;35751;48.072;11.688;2023-04-10T00:26:30;26.23;;;14.52;;
49852;SDS011;35751;48.072;11.688;2023-04-10T00:28:56;21.38;;;10.77;;
49852;SDS011;35751;48.072;11.688;2023-04-10T00:31:21;24.15;;;12.43;;
49852;SDS011;35751;48.072;11.688;2023-04-10T00:33:46;26.15;;;12.52;;
49852;SDS011;35751;48.072;11.688;2023-04-10T00:36:12;22.45;;;12.80;;
49852;SDS011;35751;48.072;11.688;2023-04-10T00:38:37;25.45;;;12.27;;
49852;SDS011;35751;48.072;11.688;2023-04-10T00:41:03;24.50;;;12.48;;
49852;SDS011;35751;48.072;11.688;2023-04-10T00:43:29;21.30;;;11.93;;
49852;SDS011;35751;48.072;11.688;2023-04-10T00:45:55;24.00;;;11.57;;
49852;SDS011;35751;48.072;11.688;2023-04-10T00:48:20;23.92;;;12.65;;
49852;SDS011;35751;48.072;11.688;2023-04-10T00:50:46;27.27;;;12.25;;
49852;SDS011;35751;48.072;11.688;2023-04-10T00:53:11;22.58;;;12.30;;
49852;SDS011;35751;48.072;11.688;2023-04-10T00:55:36;24.88;;;11.52;;
49852;SDS011;35751;48.072;11.688;2023-04-10T00:58:02;19.35;;;10.75;;
49852;SDS011;35751;48.072;11.688;2023-04-10T01:00:27;23.13;;;11.35;;
49852;SDS011;35751;48.072;11.688;2023-04-10T01:02:53;24.92;;;12.50;;
49852;SDS011;35751;48.072;11.688;2023-04-10T01:05:19;21.25;;;11.57;;
49852;SDS011;35751;48.072;11.688;2023-04-10T01:10:57;17.20;;;10.65;;
49852;SDS011;35751;48.072;11.688;2023-04-10T01:13:33;23.08;;;13.35;;
49852;SDS011;35751;48.072;11.688;2023-04-10T01:18:52;19.42;;;11.98;;
49852;SDS011;35751;48.072;11.688;2023-04-10T01:21:21;17.73;;;11.27;;
49852;SDS011;35751;48.072;11.688;2023-04-10T01:24:06;19.95;;;11.18;;
49852;SDS011;35751;48.072;11.688;2023-04-10T01:29:25;17.98;;;8.77;;
49852;SDS011;35751;48.072;11.688;2023-04-10T01:31:57;18.63;;;9.07;;
49852;SDS011;35751;48.072;11.688;2023-04-10T01:34:32;21.27;;;9.68;;
49852;SDS011;35751;48.072;11.688;2023-04-10T01:37:05;15.82;;;9.60;;
49852;SDS011;35751;48.072;11.688;2023-04-10T01:39:35;16.70;;;9.77;;
49852;SDS011;35751;48.072;11.688;2023-04-10T01:42:02;17.73;;;10.20;;
49852;SDS011;35751;48.072;11.688;2023-04-10T01:44:29;23.33;;;12.93;;
49852;SDS011;35751;48.072;11.688;2023-04-10T01:46:55;21.08;;;11.00;;
49852;SDS011;35751;48.072;11.688;2023-04-10T01:49:22;20.58;;;12.13;;
49852;SDS011;35751;48.072;11.688;2023-04-10T01:51:49;21.50;;;11.73;;
49852;SDS011;35751;48.072;11.688;2023-04-10T01:54:15;22.25;;;11.88;;
49852;SDS011;35751;48.072;11.688;2023-04-10T01:56:41;19.90;;;11.32;;
49852;SDS011;35751;48.072;11.688;2023-04-10T01:59:06;24.92;;;12.95;;
49852;SDS011;35751;48.072;11.688;2023-04-10T02:01:32;21.77;;;12.38;;
49852;SDS011;35751;48.072;11.688;2023-04-10T02:03:57;22.25;;;11.40;;
49852;SDS011;35751;48.072;11.688;2023-04-10T02:09:18;15.90;;;9.90;;
49852;SDS011;35751;48.072;11.688;2023-04-10T02:11:48;16.83;;;9.23;;
49852;SDS011;35751;48.072;11.688;2023-04-10T02:14:25;19.17;;;10.50;;
49852;SDS011;35751;48.072;11.688;2023-04-10T02:16:52;18.85;;;10.45;;
49852;SDS011;35751;48.072;11.688;2023-04-10T02:19:19;23.95;;;11.50;;
49852;SDS011;35751;48.072;11.688;2023-04-10T02:21:45;22.60;;;10.40;;
49852;SDS011;35751;48.072;11.688;2023-04-10T02:24:11;19.55;;;10.00;;
49852;SDS011;35751;48.072;11.688;2023-04-10T02:26:43;21.45;;;9.93;;
49852;SDS011;35751;48.072;11.688;2023-04-10T02:31:37;20.13;;;10.85;;
49852;SDS011;35751;48.072;11.688;2023-04-10T02:34:03;17.60;;;8.50;;
49852;SDS011;35751;48.072;11.688;2023-04-10T02:36:28;13.93;;;8.70;;
49852;SDS011;35751;48.072;11.688;2023-04-10T02:38:54;20.35;;;9.75;;
49852;SDS011;35751;48.072;11.688;2023-04-10T02:41:19;15.82;;;10.48;;
49852;SDS011;35751;48.072;11.688;2023-04-10T02:43:44;16.88;;;9.52;;
49852;SDS011;35751;48.072;11.688;2023-04-10T02:46:10;16.70;;;9.07;;
49852;SDS011;35751;48.072;11.688;2023-04-10T02:48:35;17.58;;;8.80;;
49852;SDS011;35751;48.072;11.688;2023-04-10T02:51:01;13.32;;;8.68;;
49852;SDS011;35751;48.072;11.688;2023-04-10T02:53:26;12.02;;;7.22;;
49852;SDS011;35751;48.072;11.688;2023-04-10T02:55:52;17.80;;;9.77;;
49852;SDS011;35751;48.072;11.688;2023-04-10T02:58:18;18.58;;;9.80;;
49852;SDS011;35751;48.072;11.688;2023-04-10T03:00:47;15.40;;;8.10;;
49852;SDS011;35751;48.072;11.688;2023-04-10T03:03:13;13.18;;;7.05;;
49852;SDS011;35751;48.072;11.688;2023-04-10T03:05:38;16.83;;;8.48;;
49852;SDS011;35751;48.072;11.688;2023-04-10T03:08:03;14.63;;;8.05;;
49852;SDS011;35751;48.072;11.688;2023-04-10T03:10:29;16.73;;;8.57;;
49852;SDS011;35751;48.072;11.688;2023-04-10T03:12:55;13.20;;;8.15;;
49852;SDS011;35751;48.072;11.688;2023-04-10T03:15:20;14.65;;;9.70;;
49852;SDS011;35751;48.072;11.688;2023-04-10T03:17:45;18.08;;;8.80;;
49852;SDS011;35751;48.072;11.688;2023-04-10T03:20:11;12.77;;;7.47;;
49852;SDS011;35751;48.072;11.688;2023-04-10T03:22:37;14.93;;;7.80;;
49852;SDS011;35751;48.072;11.688;2023-04-10T03:25:03;16.15;;;8.18;;
49852;SDS011;35751;48.072;11.688;2023-04-10T03:27:29;12.32;;;7.90;;
49852;SDS011;35751;48.072;11.688;2023-04-10T03:29:57;13.93;;;8.35;;
49852;SDS011;35751;48.072;11.688;2023-04-10T03:32:22;15.25;;;8.02;;
49852;SDS011;35751;48.072;11.688;2023-04-10T03:34:48;13.32;;;7.75;;
49852;SDS011;35751;48.072;11.688;2023-04-10T03:37:13;16.27;;;9.10;;
49852;SDS011;35751;48.072;11.688;2023-04-10T03:39:38;13.43;;;8.35;;
49852;SDS011;35751;48.072;11.688;2023-04-10T03:42:04;19.35;;;8.82;;
49852;SDS011;35751;48.072;11.688;2023-04-10T03:44:29;20.05;;;8.52;;
49852;SDS011;35751;48.072;11.688;2023-04-10T03:46:54;16.92;;;8.98;;
49852;SDS011;35751;48.072;11.688;2023-04-10T03:49:20;20.23;;;9.95;;
49852;SDS011;35751;48.072;11.688;2023-04-10T03:51:45;18.92;;;9.38;;
49852;SDS011;35751;48.072;11.688;2023-04-10T03:54:10;17.95;;;9.48;;
49852;SDS011;35751;48.072;11.688;2023-04-10T03:56:36;18.50;;;9.90;;
49852;SDS011;35751;48.072;11.688;2023-04-10T03:59:01;17.08;;;9.38;;
49852;SDS011;35751;48.072;11.688;2023-04-10T04:01:26;19.92;;;9.30;;
49852;SDS011;35751;48.072;11.688;2023-04-10T04:03:52;20.90;;;9.27;;
49852;SDS011;35751;48.072;11.688;2023-04-10T04:06:17;17.35;;;9.95;;
49852;SDS011;35751;48.072;11.688;2023-04-10T04:08:42;15.57;;;8.73;;
49852;SDS011;35751;48.072;11.688;2023-04-10T04:11:08;16.92;;;8.35;;
49852;SDS011;35751;48.072;11.688;2023-04-10T04:13:33;18.05;;;10.32;;
49852;SDS011;35751;48.072;11.688;2023-04-10T04:15:58;14.30;;;8.75;;
49852;SDS011;35751;48.072;11.688;2023-04-10T04:18:24;15.68;;;9.50;;
49852;SDS011;35751;48.072;11.688;2023-04-10T04:20:49;15.10;;;8.98;;
49852;SDS011;35751;48.072;11.688;2023-04-10T04:23:15;25.70;;;10.38;;
49852;SDS011;35751;48.072;11.688;2023-04-10T04:25:41;20.60;;;10.63;;
49852;SDS011;35751;48.072;11.688;2023-04-10T04:28:07;23.08;;;11.90;;
49852;SDS011;35751;48.072;11.688;2023-04-10T04:30:33;26.42;;;12.98;;
49852;SDS011;35751;48.072;11.688;2023-04-10T04:32:59;17.15;;;10.50;;
49852;SDS011;35751;48.072;11.688;2023-04-10T04:35:24;28.17;;;13.63;;
49852;SDS011;35751;48.072;11.688;2023-04-10T04:37:49;23.58;;;12.70;;
49852;SDS011;35751;48.072;11.688;2023-04-10T04:40:15;27.33;;;13.25;;
49852;SDS011;35751;48.072;11.688;2023-04-10T04:42:40;29.75;;;15.18;;
49852;SDS011;35751;48.072;11.688;2023-04-10T04:45:06;27.30;;;15.05;;
49852;SDS011;35751;48.072;11.688;2023-04-10T04:47:31;37.95;;;17.10;;
49852;SDS011;35751;48.072;11.688;2023-04-10T04:49:57;37.22;;;17.05;;
49852;SDS011;35751;48.072;11.688;2023-04-10T04:52:22;34.75;;;16.25;;
49852;SDS011;35751;48.072;11.688;2023-04-10T04:54:48;43.78;;;18.60;;
49852;SDS011;35751;48.072;11.688;2023-04-10T04:57:13;35.78;;;16.30;;
49852;SDS011;35751;48.072;11.688;2023-04-10T04:59:38;35.15;;;17.52;;
49852;SDS011;35751;48.072;11.688;2023-04-10T05:02:04;33.28;;;17.23;;
49852;SDS011;35751;48.072;11.688;2023-04-10T05:04:29;36.70;;;16.92;;
49852;SDS011;35751;48.072;11.688;2023-04-10T05:06:55;33.85;;;16.30;;
49852;SDS011;35751;48.072;11.688;2023-04-10T05:09:20;30.65;;;16.70;;
49852;SDS011;35751;48.072;11.688;2023-04-10T05:11:45;35.05;;;16.13;;
49852;SDS011;35751;48.072;11.688;2023-04-10T05:14:11;31.27;;;16.42;;
49852;SDS011;35751;48.072;11.688;2023-04-10T05:16:36;34.10;;;15.63;;
49852;SDS011;35751;48.072;11.688;2023-04-10T05:19:01;29.70;;;15.40;;
49852;SDS011;35751;48.072;11.688;2023-04-10T05:21:27;32.63;;;17.10;;
49852;SDS011;35751;48.072;11.688;2023-04-10T05:23:52;34.85;;;16.52;;
49852;SDS011;35751;48.072;11.688;2023-04-10T05:26:17;31.02;;;17.63;;
49852;SDS011;35751;48.072;11.688;2023-04-10T05:28:43;32.55;;;17.52;;
49852;SDS011;35751;48.072;11.688;2023-04-10T05:31:08;36.45;;;17.25;;
49852;SDS011;35751;48.072;11.688;2023-04-10T05:33:33;35.05;;;17.50;;
49852;SDS011;35751;48.072;11.688;2023-04-10T05:35:59;35.65;;;17.38;;
49852;SDS011;35751;48.072;11.688;2023-04-10T05:38:24;30.25;;;16.73;;
49852;SDS011;35751;48.072;11.688;2023-04-10T05:40:50;34.05;;;15.55;;
49852;SDS011;35751;48.072;11.688;2023-04-10T05:43:15;26.88;;;13.43;;
49852;SDS011;35751;48.072;11.688;2023-04-10T05:45:43;26.63;;;13.23;;
49852;SDS011;35751;48.072;11.688;2023-04-10T05:48:09;18.65;;;11.18;;
49852;SDS011;35751;48.072;11.688;2023-04-10T05:50:34;14.15;;;8.93;;
49852;SDS011;35751;48.072;11.688;2023-04-10T05:53:00;17.65;;;9.80;;
49852;SDS011;35751;48.072;11.688;2023-04-10T05:55:25;15.70;;;7.97;;
49852;SDS011;35751;48.072;11.688;2023-04-10T05:57:50;15.70;;;8.82;;
49852;SDS011;35751;48.072;11.688;2023-04-10T06:00:16;12.98;;;7.85;;
49852;SDS011;35751;48.072;11.688;2023-04-10T06:02:42;12.15;;;7.78;;
49852;SDS011;35751;48.072;11.688;2023-04-10T06:05:07;12.23;;;7.18;;
49852;SDS011;35751;48.072;11.688;2023-04-10T06:07:32;13.77;;;7.35;;
49852;SDS011;35751;48.072;11.688;2023-04-10T06:09:58;10.07;;;6.57;;
49852;SDS011;35751;48.072;11.688;2023-04-10T06:12:23;10.60;;;7.05;;
49852;SDS011;35751;48.072;11.688;2023-04-10T06:14:48;11.25;;;6.43;;
49852;SDS011;35751;48.072;11.688;2023-04-10T06:17:14;12.82;;;7.30;;
49852;SDS011;35751;48.072;11.688;2023-04-10T06:19:39;8.55;;;6.05;;
49852;SDS011;35751;48.072;11.688;2023-04-10T06:22:04;11.65;;;6.32;;
49852;SDS011;35751;48.072;11.688;2023-04-10T06:24:30;9.80;;;6.05;;
49852;SDS011;35751;48.072;11.688;2023-04-10T06:26:56;10.05;;;6.10;;
49852;SDS011;35751;48.072;11.688;2023-04-10T06:29:21;9.75;;;6.38;;
49852;SDS011;35751;48.072;11.688;2023-04-10T06:31:47;13.13;;;7.53;;
49852;SDS011;35751;48.072;11.688;2023-04-10T06:34:13;10.43;;;7.03;;
49852;SDS011;35751;48.072;11.688;2023-04-10T06:36:38;10.07;;;6.78;;
49852;SDS011;35751;48.072;11.688;2023-04-10T06:39:03;10.38;;;6.70;;
49852;SDS011;35751;48.072;11.688;2023-04-10T06:41:29;10.73;;;6.88;;
49852;SDS011;35751;48.072;11.688;2023-04-10T06:43:54;9.73;;;6.70;;
49852;SDS011;35751;48.072;11.688;2023-04-10T06:46:19;9.85;;;6.60;;
49852;SDS011;35751;48.072;11.688;2023-04-10T06:48:45;9.65;;;6.97;;
49852;SDS011;35751;48.072;11.688;2023-04-10T06:51:10;10.23;;;6.60;;
49852;SDS011;35751;48.072;11.688;2023-04-10T06:53:35;10.88;;;7.20;;
49852;SDS011;35751;48.072;11.688;2023-04-10T06:56:01;11.45;;;6.85;;
49852;SDS011;35751;48.072;11.688;2023-04-10T06:58:26;11.38;;;6.55;;
49852;SDS011;35751;48.072;11.688;2023-04-10T07:00:51;9.65;;;6.85;;
49852;SDS011;35751;48.072;11.688;2023-04-10T07:03:18;10.90;;;7.00;;
49852;SDS011;35751;48.072;11.688;2023-04-10T07:05:43;10.60;;;7.53;;
49852;SDS011;35751;48.072;11.688;2023-04-10T07:08:08;10.25;;;6.65;;
49852;SDS011;35751;48.072;11.688;2023-04-10T07:10:34;9.95;;;6.00;;
49852;SDS011;35751;48.072;11.688;2023-04-10T07:13:00;12.00;;;6.50;;
49852;SDS011;35751;48.072;11.688;2023-04-10T07:15:25;10.85;;;6.35;;
49852;SDS011;35751;48.072;11.688;2023-04-10T07:17:51;8.30;;;5.22;;
49852;SDS011;35751;48.072;11.688;2023-04-10T07:20:16;9.25;;;5.63;;
49852;SDS011;35751;48.072;11.688;2023-04-10T07:22:41;8.98;;;6.25;;
49852;SDS011;35751;48.072;11.688;2023-04-10T07:25:07;10.30;;;5.55;;
49852;SDS011;35751;48.072;11.688;2023-04-10T07:27:32;8.70;;;5.22;;
49852;SDS011;35751;48.072;11.688;2023-04-10T07:29:58;8.55;;;5.10;;
49852;SDS011;35751;48.072;11.688;2023-04-10T07:32:23;8.98;;;5.75;;
49852;SDS011;35751;48.072;11.688;2023-04-10T07:34:49;8.77;;;5.07;;
49852;SDS011;35751;48.072;11.688;2023-04-10T07:37:14;8.07;;;5.10;;
49852;SDS011;35751;48.072;11.688;2023-04-10T07:39:39;7.78;;;4.70;;
49852;SDS011;35751;48.072;11.688;2023-04-10T07:42:05;9.57;;;5.85;;
49852;SDS011;35751;48.072;11.688;2023-04-10T07:44:30;8.13;;;5.25;;
49852;SDS011;35751;48.072;11.688;2023-04-10T07:46:56;8.00;;;4.72;;
49852;SDS011;35751;48.072;11.688;2023-04-10T07:49:22;7.85;;;4.88;;
49852;SDS011;35751;48.072;11.688;2023-04-10T07:51:48;7.78;;;4.65;;
49852;SDS011;35751;48.072;11.688;2023-04-10T07:54:13;9.65;;;6.00;;
49852;SDS011;35751;48.072;11.688;2023-04-10T07:56:39;8.23;;;5.47;;
49852;SDS011;35751;48.072;11.688;2023-04-10T07:59:04;7.78;;;4.55;;
49852;SDS011;35751;48.072;11.688;2023-04-10T08:01:30;8.93;;;6.28;;
49852;SDS011;35751;48.072;11.688;2023-04-10T08:03:56;7.25;;;4.53;;
49852;SDS011;35751;48.072;11.688;2023-04-10T08:06:21;8.45;;;5.47;;
49852;SDS011;35751;48.072;11.688;2023-04-10T08:08:46;7.20;;;4.47;;
49852;SDS011;35751;48.072;11.688;2023-04-10T08:13:48;8.57;;;5.25;;
49852;SDS011;35751;48.072;11.688;2023-04-10T08:16:15;7.53;;;4.88;;
49852;SDS011;35751;48.072;11.688;2023-04-10T08:18:41;7.50;;;4.75;;
49852;SDS011;35751;48.072;11.688;2023-04-10T08:21:06;7.53;;;5.53;;
49852;SDS011;35751;48.072;11.688;2023-04-10T08:23:31;6.00;;;4.70;;
49852;SDS011;35751;48.072;11.688;2023-04-10T08:25:57;6.45;;;4.55;;
49852;SDS011;35751;48.072;11.688;2023-04-10T08:28:22;7.00;;;4.55;;
49852;SDS011;35751;48.072;11.688;2023-04-10T08:30:47;7.03;;;5.00;;
49852;SDS011;35751;48.072;11.688;2023-04-10T08:33:13;5.50;;;4.68;;
49852;SDS011;35751;48.072;11.688;2023-04-10T08:35:38;6.70;;;4.63;;
49852;SDS011;35751;48.072;11.688;2023-04-10T08:38:03;5.90;;;4.25;;
49852;SDS011;35751;48.072;11.688;2023-04-10T08:40:29;6.32;;;4.38;;
49852;SDS011;35751;48.072;11.688;2023-04-10T08:42:54;7.80;;;4.68;;
49852;SDS011;35751;48.072;11.688;2023-04-10T08:45:20;7.55;;;5.00;;
49852;SDS011;35751;48.072;11.688;2023-04-10T08:47:45;6.80;;;5.13;;
49852;SDS011;35751;48.072;11.688;2023-04-10T08:50:12;6.35;;;4.85;;
49852;SDS011;35751;48.072;11.688;2023-04-10T08:52:41;6.60;;;5.00;;
49852;SDS011;35751;48.072;11.688;2023-04-10T08:55:07;7.90;;;4.97;;
49852;SDS011;35751;48.072;11.688;2023-04-10T08:57:33;6.00;;;4.18;;
49852;SDS011;35751;48.072;11.688;2023-04-10T09:00:01;7.53;;;5.60;;
49852;SDS011;35751;48.072;11.688;2023-04-10T09:02:27;9.02;;;5.75;;
49852;SDS011;35751;48.072;11.688;2023-04-10T09:04:52;8.15;;;4.25;;
49852;SDS011;35751;48.072;11.688;2023-04-10T09:07:21;9.40;;;5.18;;
49852;SDS011;35751;48.072;11.688;2023-04-10T09:09:49;7.35;;;4.90;;
49852;SDS011;35751;48.072;11.688;2023-04-10T09:12:15;8.25;;;5.97;;
49852;SDS011;35751;48.072;11.688;2023-04-10T09:14:40;5.18;;;3.60;;
49852;SDS011;35751;48.072;11.688;2023-04-10T09:17:10;5.95;;;4.05;;
49852;SDS011;35751;48.072;11.688;2023-04-10T09:19:37;6.28;;;4.28;;
49852;SDS011;35751;48.072;11.688;2023-04-10T09:22:02;5.30;;;3.72;;
49852;SDS011;35751;48.072;11.688;2023-04-10T09:24:28;6.72;;;4.97;;
49852;SDS011;35751;48.072;11.688;2023-04-10T09:26:53;6.03;;;3.95;;
49852;SDS011;35751;48.072;11.688;2023-04-10T09:29:19;5.78;;;4.22;;
49852;SDS011;35751;48.072;11.688;2023-04-10T09:31:44;5.40;;;3.63;;
49852;SDS011;35751;48.072;11.688;2023-04-10T09:34:16;5.63;;;3.80;;
49852;SDS011;35751;48.072;11.688;2023-04-10T09:36:43;5.97;;;4.40;;
49852;SDS011;35751;48.072;11.688;2023-04-10T09:39:10;5.90;;;4.32;;
49852;SDS011;35751;48.072;11.688;2023-04-10T09:41:52;5.93;;;4.28;;
49852;SDS011;35751;48.072;11.688;2023-04-10T09:44:31;5.88;;;3.58;;
49852;SDS011;35751;48.072;11.688;2023-04-10T09:46:58;5.38;;;4.05;;
49852;SDS011;35751;48.072;11.688;2023-04-10T09:52:16;4.18;;;3.63;;
49852;SDS011;35751;48.072;11.688;2023-04-10T09:54:49;4.50;;;3.35;;
49852;SDS011;35751;48.072;11.688;2023-04-10T09:57:16;5.82;;;4.22;;
49852;SDS011;35751;48.072;11.688;2023-04-10T09:59:47;4.82;;;3.53;;
49852;SDS011;35751;48.072;11.688;2023-04-10T10:02:17;4.75;;;3.60;;
49852;SDS011;35751;48.072;11.688;2023-04-10T10:04:43;5.25;;;4.10;;
49852;SDS011;35751;48.072;11.688;2023-04-10T10:07:11;5.00;;;3.92;;
49852;SDS011;35751;48.072;11.688;2023-04-10T10:09:37;3.70;;;3.17;;
49852;SDS011;35751;48.072;11.688;2023-04-10T10:12:02;5.38;;;4.20;;
49852;SDS011;35751;48.072;11.688;2023-04-10T10:14:28;4.90;;;3.22;;
49852;SDS011;35751;48.072;11.688;2023-04-10T10:16:55;4.93;;;3.47;;
49852;SDS011;35751;48.072;11.688;2023-04-10T10:19:30;5.38;;;3.50;;
49852;SDS011;35751;48.072;11.688;2023-04-10T10:22:01;4.90;;;3.58;;
49852;SDS011;35751;48.072;11.688;2023-04-10T10:24:27;5.00;;;3.72;;
49852;SDS011;35751;48.072;11.688;2023-04-10T10:26:53;4.82;;;3.55;;
49852;SDS011;35751;48.072;11.688;2023-04-10T10:29:21;4.63;;;3.83;;
49852;SDS011;35751;48.072;11.688;2023-04-10T10:31:48;6.47;;;3.65;;
49852;SDS011;35751;48.072;11.688;2023-04-10T10:34:14;3.38;;;2.80;;
49852;SDS011;35751;48.072;11.688;2023-04-10T10:36:40;5.40;;;3.30;;
49852;SDS011;35751;48.072;11.688;2023-04-10T10:45:06;5.28;;;3.85;;
49852;SDS011;35751;48.072;11.688;2023-04-10T10:47:38;4.38;;;3.47;;
49852;SDS011;35751;48.072;11.688;2023-04-10T10:50:05;5.28;;;3.72;;
49852;SDS011;35751;48.072;11.688;2023-04-10T10:52:40;4.18;;;3.38;;
49852;SDS011;35751;48.072;11.688;2023-04-10T10:58:08;4.25;;;3.40;;
49852;SDS011;35751;48.072;11.688;2023-04-10T11:05:53;3.88;;;3.20;;
49852;SDS011;35751;48.072;11.688;2023-04-10T11:13:33;5.47;;;4.03;;
49852;SDS011;35751;48.072;11.688;2023-04-10T11:16:00;6.72;;;4.20;;
49852;SDS011;35751;48.072;11.688;2023-04-10T11:23:36;5.47;;;3.20;;
49852;SDS011;35751;48.072;11.688;2023-04-10T11:26:03;6.40;;;3.95;;
49852;SDS011;35751;48.072;11.688;2023-04-10T11:33:46;5.68;;;4.28;;
49852;SDS011;35751;48.072;11.688;2023-04-10T11:36:30;4.55;;;3.13;;
49852;SDS011;35751;48.072;11.688;2023-04-10T11:39:00;4.03;;;2.95;;
49852;SDS011;35751;48.072;11.688;2023-04-10T11:41:38;3.88;;;3.22;;
49852;SDS011;35751;48.072;11.688;2023-04-10T11:44:06;4.13;;;3.05;;
49852;SDS011;35751;48.072;11.688;2023-04-10T11:46:35;4.95;;;2.90;;
49852;SDS011;35751;48.072;11.688;2023-04-10T11:49:08;4.47;;;3.30;;
49852;SDS011;35751;48.072;11.688;2023-04-10T11:51:35;3.90;;;3.10;;
49852;SDS011;35751;48.072;11.688;2023-04-10T11:54:14;3.42;;;2.80;;
49852;SDS011;35751;48.072;11.688;2023-04-10T11:56:45;4.63;;;3.33;;
49852;SDS011;35751;48.072;11.688;2023-04-10T11:59:32;4.07;;;3.05;;
49852;SDS011;35751;48.072;11.688;2023-04-10T12:02:13;4.32;;;3.08;;
49852;SDS011;35751;48.072;11.688;2023-04-10T12:04:39;4.07;;;3.20;;
49852;SDS011;35751;48.072;11.688;2023-04-10T12:07:05;3.45;;;2.80;;
49852;SDS011;35751;48.072;11.688;2023-04-10T12:09:31;3.67;;;2.40;;
49852;SDS011;35751;48.072;11.688;2023-04-10T12:11:58;2.97;;;2.42;;
49852;SDS011;35751;48.072;11.688;2023-04-10T12:16:56;4.80;;;2.70;;
49852;SDS011;35751;48.072;11.688;2023-04-10T12:19:22;3.78;;;2.50;;
49852;SDS011;35751;48.072;11.688;2023-04-10T12:21:47;4.68;;;3.03;;
49852;SDS011;35751;48.072;11.688;2023-04-10T12:24:15;4.65;;;3.65;;
49852;SDS011;35751;48.072;11.688;2023-04-10T12:27:05;3.47;;;2.90;;
49852;SDS011;35751;48.072;11.688;2023-04-10T12:29:30;6.05;;;3.55;;
49852;SDS011;35751;48.072;11.688;2023-04-10T12:31:56;4.40;;;3.13;;
49852;SDS011;35751;48.072;11.688;2023-04-10T12:34:21;4.22;;;3.55;;
49852;SDS011;35751;48.072;11.688;2023-04-10T12:36:50;4.57;;;3.47;;
49852;SDS011;35751;48.072;11.688;2023-04-10T12:39:21;5.20;;;3.42;;
49852;SDS011;35751;48.072;11.688;2023-04-10T12:41:47;4.18;;;3.03;;
49852;SDS011;35751;48.072;11.688;2023-04-10T12:44:12;3.53;;;2.60;;
49852;SDS011;35751;48.072;11.688;2023-04-10T12:46:38;3.58;;;2.80;;
49852;SDS011;35751;48.072;11.688;2023-04-10T12:49:11;3.22;;;2.83;;
49852;SDS011;35751;48.072;11.688;2023-04-10T12:54:10;3.53;;;2.83;;
49852;SDS011;35751;48.072;11.688;2023-04-10T12:56:43;3.55;;;2.65;;
49852;SDS011;35751;48.072;11.688;2023-04-10T12:59:09;4.93;;;2.67;;
49852;SDS011;35751;48.072;11.688;2023-04-10T13:01:38;3.47;;;2.80;;
49852;SDS011;35751;48.072;11.688;2023-04-10T13:04:03;3.33;;;2.70;;
49852;SDS011;35751;48.072;11.688;2023-04-10T13:06:28;3.08;;;2.50;;
49852;SDS011;35751;48.072;11.688;2023-04-10T13:08:54;4.18;;;3.25;;
49852;SDS011;35751;48.072;11.688;2023-04-10T13:11:20;4.78;;;3.30;;
49852;SDS011;35751;48.072;11.688;2023-04-10T13:13:47;4.35;;;3.17;;
49852;SDS011;35751;48.072;11.688;2023-04-10T13:16:12;3.67;;;2.70;;
49852;SDS011;35751;48.072;11.688;2023-04-10T13:18:37;3.88;;;2.80;;
49852;SDS011;35751;48.072;11.688;2023-04-10T13:21:03;2.92;;;2.38;;
49852;SDS011;35751;48.072;11.688;2023-04-10T13:23:28;3.35;;;2.47;;
49852;SDS011;35751;48.072;11.688;2023-04-10T13:25:54;2.45;;;2.17;;
49852;SDS011;35751;48.072;11.688;2023-04-10T13:28:20;3.17;;;2.75;;
49852;SDS011;35751;48.072;11.688;2023-04-10T13:30:46;3.30;;;2.83;;
49852;SDS011;35751;48.072;11.688;2023-04-10T13:33:11;2.65;;;2.33;;
49852;SDS011;35751;48.072;11.688;2023-04-10T13:35:37;3.03;;;2.42;;
49852;SDS011;35751;48.072;11.688;2023-04-10T13:38:03;2.72;;;2.50;;
49852;SDS011;35751;48.072;11.688;2023-04-10T13:40:29;3.83;;;2.95;;
49852;SDS011;35751;48.072;11.688;2023-04-10T13:42:55;3.08;;;2.30;;
49852;SDS011;35751;48.072;11.688;2023-04-10T13:45:20;3.35;;;2.67;;
49852;SDS011;35751;48.072;11.688;2023-04-10T13:47:46;4.32;;;2.55;;
49852;SDS011;35751;48.072;11.688;2023-04-10T13:50:11;3.50;;;2.90;;
49852;SDS011;35751;48.072;11.688;2023-04-10T13:52:36;2.72;;;2.17;;
49852;SDS011;35751;48.072;11.688;2023-04-10T13:55:02;4.13;;;2.95;;
49852;SDS011;35751;48.072;11.688;2023-04-10T13:57:28;3.53;;;2.75;;
49852;SDS011;35751;48.072;11.688;2023-04-10T13:59:53;3.50;;;2.15;;
49852;SDS011;35751;48.072;11.688;2023-04-10T14:02:18;3.25;;;2.65;;
49852;SDS011;35751;48.072;11.688;2023-04-10T14:04:44;3.47;;;2.60;;
49852;SDS011;35751;48.072;11.688;2023-04-10T14:07:10;2.80;;;2.40;;
49852;SDS011;35751;48.072;11.688;2023-04-10T14:09:36;3.10;;;2.80;;
49852;SDS011;35751;48.072;11.688;2023-04-10T14:12:01;3.35;;;2.42;;
49852;SDS011;35751;48.072;11.688;2023-04-10T14:14:27;4.18;;;2.95;;
49852;SDS011;35751;48.072;11.688;2023-04-10T14:16:52;3.75;;;2.72;;
49852;SDS011;35751;48.072;11.688;2023-04-10T14:19:18;3.67;;;2.58;;
49852;SDS011;35751;48.072;11.688;2023-04-10T14:21:43;3.42;;;2.60;;
49852;SDS011;35751;48.072;11.688;2023-04-10T14:24:09;3.03;;;2.38;;
49852;SDS011;35751;48.072;11.688;2023-04-10T14:26:34;2.90;;;2.38;;
49852;SDS011;35751;48.072;11.688;2023-04-10T14:29:00;3.00;;;2.40;;
49852;SDS011;35751;48.072;11.688;2023-04-10T14:31:25;3.67;;;2.65;;
49852;SDS011;35751;48.072;11.688;2023-04-10T14:33:51;4.88;;;2.88;;
49852;SDS011;35751;48.072;11.688;2023-04-10T14:36:16;3.55;;;2.58;;
49852;SDS011;35751;48.072;11.688;2023-04-10T14:38:41;4.65;;;3.20;;
49852;SDS011;35751;48.072;11.688;2023-04-10T14:41:07;3.00;;;2.60;;
49852;SDS011;35751;48.072;11.688;2023-04-10T14:43:32;2.88;;;2.58;;
49852;SDS011;35751;48.072;11.688;2023-04-10T14:45:57;3.17;;;2.40;;
49852;SDS011;35751;48.072;11.688;2023-04-10T14:48:23;3.33;;;2.45;;
49852;SDS011;35751;48.072;11.688;2023-04-10T14:50:49;3.00;;;2.30;;
49852;SDS011;35751;48.072;11.688;2023-04-10T14:53:14;3.13;;;2.63;;
49852;SDS011;35751;48.072;11.688;2023-04-10T14:55:40;3.72;;;2.83;;
49852;SDS011;35751;48.072;11.688;2023-04-10T15:04:49;3.55;;;2.25;;
49852;SDS011;35751;48.072;11.688;2023-04-10T15:07:14;3.85;;;2.60;;
49852;SDS011;35751;48.072;11.688;2023-04-10T15:09:40;3.50;;;2.53;;
49852;SDS011;35751;48.072;11.688;2023-04-10T15:12:07;2.40;;;2.20;;
49852;SDS011;35751;48.072;11.688;2023-04-10T15:14:32;2.42;;;2.10;;
49852;SDS011;35751;48.072;11.688;2023-04-10T15:16:57;2.80;;;2.20;;
49852;SDS011;35751;48.072;11.688;2023-04-10T15:19:23;4.13;;;2.70;;
49852;SDS011;35751;48.072;11.688;2023-04-10T15:21:49;3.75;;;2.75;;
49852;SDS011;35751;48.072;11.688;2023-04-10T15:24:14;4.15;;;2.63;;